This demonstration page uses our WeatherBlox Daily Observations layout. Learn more.

Left ArrowRight Arrow

Hourly Observations for April 19, 2020

Temp ( °F °C ) Dew Point ( °F °C ) Humidity (%) Winds ( mph kmh ) Pressure ( in mb ) Visibility ( mi km ) Precip ( " mm )
12:54 am 00:54 Clear 53 11.7 35 1.7 51 51 Calm 29.8 1009 10 16.0934 0 0
1:54 am 01:54 Clear 49 9.4 36 2.2 61 61 NNW 6 9 29.8 1009 10 16.0934 0 0
2:54 am 02:54 Clear 40 4.4 34 1.1 79 79 N 6 9 29.8 1009 10 16.0934 0 0
3:54 am 03:54 Clear 45 7.2 36 2.2 71 71 N 7 11 29.81 1010 10 16.0934 0 0
4:54 am 04:54 Clear 44 6.7 36 2.2 73 73 N 13 20 29.81 1009 10 16.0934 0 0
5:54 am 05:54 Mostly Cloudy 43 6.1 36 2.2 76 76 N 13 20 29.82 1010 10 16.0934 0 0
6:54 am 06:54 Sunny 41 5 34 1.1 76 76 N 7 11 29.85 1011 10 16.0934 0 0
7:54 am 07:54 Sunny 48 8.9 37 2.8 66 66 NE 6 9 29.88 1012 10 16.0934 0 0
8:54 am 08:54 Sunny 52 11.1 36 2.2 55 55 NNE 15 24 29.92 1013 10 16.0934 0 0
9:54 am 09:54 Sunny 56 13.3 36 2.2 47 47 NE 17 28 29.92 1013 10 16.0934 0 0
10:54 am 10:54 Sunny 59 15 37 2.8 44 44 NE 12 19 29.93 1013 10 16.0934 0 0
11:54 am 11:54 Sunny 61 16.1 34 1.1 36 36 ENE 13 20 29.93 1013 10 16.0934 0 0
12:54 pm 12:54 Sunny 63 17.2 34 1.1 34 34 ENE 14 22 29.92 1013 10 16.0934 0 0
1:54 pm 13:54 Sunny 63 17.2 32 0 31 31 E 15 24 29.9 1013 10 16.0934 0 0
2:54 pm 14:54 Sunny 64 17.8 33 0.6 32 32 NE 13 20 29.89 1012 10 16.0934 0 0
3:54 pm 15:54 Sunny 65 18.3 31 -0.6 28 28 N 10 17 29.87 1011 10 16.0934 0 0
4:54 pm 16:54 Sunny 64 17.8 32 0 30 30 NE 12 19 29.86 1011 10 16.0934 0 0
5:54 pm 17:54 Sunny 64 17.8 30 -1.1 28 28 NNE 7 11 29.85 1011 10 16.0934 0 0
6:54 pm 18:54 Sunny 62 16.7 31 -0.6 31 31 ENE 6 9 29.85 1011 10 16.0934 0 0
7:54 pm 19:54 Sunny 55 12.8 33 0.6 44 44 NNE 10 17 29.86 1011 10 16.0934 0 0
8:54 pm 20:54 Clear 49 9.4 33 0.6 55 55 NE 8 13 29.87 1012 10 16.0934 0 0
9:54 pm 21:54 Clear 49 9.4 32 0 52 52 NE 3 6 29.89 1012 10 16.0934 0 0
10:54 pm 22:54 Clear 48 8.9 31 -0.6 52 52 NNE 3 6 29.9 1012 10 16.0934 0 0
11:54 pm 23:54 Mostly Clear 44 6.7 33 0.6 65 65 Calm 29.89 1012 10 16.0934 0 0

Powered by AerisWeather